sensor_id;sensor_type;location;lat;lon;timestamp;P1;durP1;ratioP1;P2;durP2;ratioP2
45420;SDS011;55462;47.042;8.292;2023-11-21T00:00:45;2.67;;;1.27;;
45420;SDS011;55462;47.042;8.292;2023-11-21T00:03:11;3.53;;;1.10;;
45420;SDS011;55462;47.042;8.292;2023-11-21T00:05:39;2.35;;;0.90;;
45420;SDS011;55462;47.042;8.292;2023-11-21T00:08:06;6.28;;;1.75;;
45420;SDS011;55462;47.042;8.292;2023-11-21T00:10:32;3.15;;;0.95;;
45420;SDS011;55462;47.042;8.292;2023-11-21T00:12:58;2.10;;;1.27;;
45420;SDS011;55462;47.042;8.292;2023-11-21T00:15:23;3.03;;;1.05;;
45420;SDS011;55462;47.042;8.292;2023-11-21T00:17:50;2.83;;;1.17;;
45420;SDS011;55462;47.042;8.292;2023-11-21T00:20:15;3.65;;;1.10;;
45420;SDS011;55462;47.042;8.292;2023-11-21T00:22:40;2.95;;;1.17;;
45420;SDS011;55462;47.042;8.292;2023-11-21T00:25:06;3.20;;;1.40;;
45420;SDS011;55462;47.042;8.292;2023-11-21T00:27:33;2.65;;;1.08;;
45420;SDS011;55462;47.042;8.292;2023-11-21T00:30:00;1.85;;;1.27;;
45420;SDS011;55462;47.042;8.292;2023-11-21T00:32:25;3.92;;;1.20;;
45420;SDS011;55462;47.042;8.292;2023-11-21T00:34:50;1.80;;;0.90;;
45420;SDS011;55462;47.042;8.292;2023-11-21T00:37:16;3.03;;;0.90;;
45420;SDS011;55462;47.042;8.292;2023-11-21T00:39:41;2.15;;;1.20;;
45420;SDS011;55462;47.042;8.292;2023-11-21T00:42:06;4.30;;;1.50;;
45420;SDS011;55462;47.042;8.292;2023-11-21T00:44:32;2.95;;;1.30;;
45420;SDS011;55462;47.042;8.292;2023-11-21T00:46:59;2.95;;;0.82;;
45420;SDS011;55462;47.042;8.292;2023-11-21T00:49:24;3.38;;;0.77;;
45420;SDS011;55462;47.042;8.292;2023-11-21T00:51:49;2.65;;;1.10;;
45420;SDS011;55462;47.042;8.292;2023-11-21T00:54:14;3.92;;;0.95;;
45420;SDS011;55462;47.042;8.292;2023-11-21T00:56:42;1.13;;;0.80;;
45420;SDS011;55462;47.042;8.292;2023-11-21T00:59:07;2.42;;;1.17;;
45420;SDS011;55462;47.042;8.292;2023-11-21T01:01:32;1.00;;;0.80;;
45420;SDS011;55462;47.042;8.292;2023-11-21T01:03:58;2.75;;;1.00;;
45420;SDS011;55462;47.042;8.292;2023-11-21T01:06:23;2.45;;;1.23;;
45420;SDS011;55462;47.042;8.292;2023-11-21T01:08:48;1.90;;;1.00;;
45420;SDS011;55462;47.042;8.292;2023-11-21T01:11:14;1.52;;;0.80;;
45420;SDS011;55462;47.042;8.292;2023-11-21T01:13:40;3.97;;;1.20;;
45420;SDS011;55462;47.042;8.292;2023-11-21T01:16:05;2.05;;;0.60;;
45420;SDS011;55462;47.042;8.292;2023-11-21T01:18:31;2.92;;;1.00;;
45420;SDS011;55462;47.042;8.292;2023-11-21T01:20:57;1.27;;;0.80;;
45420;SDS011;55462;47.042;8.292;2023-11-21T01:23:22;2.00;;;1.00;;
45420;SDS011;55462;47.042;8.292;2023-11-21T01:25:48;3.40;;;1.38;;
45420;SDS011;55462;47.042;8.292;2023-11-21T01:28:13;2.83;;;0.93;;
45420;SDS011;55462;47.042;8.292;2023-11-21T01:30:38;2.70;;;0.90;;
45420;SDS011;55462;47.042;8.292;2023-11-21T01:33:04;3.20;;;1.10;;
45420;SDS011;55462;47.042;8.292;2023-11-21T01:35:29;1.55;;;0.82;;
45420;SDS011;55462;47.042;8.292;2023-11-21T01:37:55;5.78;;;1.10;;
45420;SDS011;55462;47.042;8.292;2023-11-21T01:40:20;1.88;;;0.98;;
45420;SDS011;55462;47.042;8.292;2023-11-21T01:42:46;2.08;;;1.00;;
45420;SDS011;55462;47.042;8.292;2023-11-21T01:45:12;1.67;;;0.80;;
45420;SDS011;55462;47.042;8.292;2023-11-21T01:47:38;1.77;;;0.80;;
45420;SDS011;55462;47.042;8.292;2023-11-21T01:50:05;1.85;;;0.80;;
45420;SDS011;55462;47.042;8.292;2023-11-21T01:52:31;1.77;;;0.65;;
45420;SDS011;55462;47.042;8.292;2023-11-21T01:54:57;1.85;;;0.93;;
45420;SDS011;55462;47.042;8.292;2023-11-21T01:57:24;2.10;;;1.17;;
45420;SDS011;55462;47.042;8.292;2023-11-21T01:59:49;3.97;;;1.40;;
45420;SDS011;55462;47.042;8.292;2023-11-21T02:02:16;3.30;;;1.60;;
45420;SDS011;55462;47.042;8.292;2023-11-21T02:04:42;4.03;;;1.40;;
45420;SDS011;55462;47.042;8.292;2023-11-21T02:07:07;3.00;;;1.67;;
45420;SDS011;55462;47.042;8.292;2023-11-21T02:09:32;3.42;;;1.42;;
45420;SDS011;55462;47.042;8.292;2023-11-21T02:11:59;2.90;;;1.63;;
45420;SDS011;55462;47.042;8.292;2023-11-21T02:14:27;3.90;;;1.50;;
45420;SDS011;55462;47.042;8.292;2023-11-21T02:16:54;3.95;;;1.50;;
45420;SDS011;55462;47.042;8.292;2023-11-21T02:19:20;2.70;;;1.17;;
45420;SDS011;55462;47.042;8.292;2023-11-21T02:21:50;0.95;;;0.90;;
45420;SDS011;55462;47.042;8.292;2023-11-21T02:24:18;1.98;;;1.20;;
45420;SDS011;55462;47.042;8.292;2023-11-21T02:26:47;3.97;;;1.60;;
45420;SDS011;55462;47.042;8.292;2023-11-21T02:29:13;4.35;;;1.45;;
45420;SDS011;55462;47.042;8.292;2023-11-21T02:31:38;4.15;;;1.13;;
45420;SDS011;55462;47.042;8.292;2023-11-21T02:34:12;1.45;;;1.25;;
45420;SDS011;55462;47.042;8.292;2023-11-21T02:36:41;3.63;;;1.27;;
45420;SDS011;55462;47.042;8.292;2023-11-21T02:39:07;2.88;;;1.10;;
45420;SDS011;55462;47.042;8.292;2023-11-21T02:41:33;2.63;;;1.08;;
45420;SDS011;55462;47.042;8.292;2023-11-21T02:43:59;3.13;;;1.05;;
45420;SDS011;55462;47.042;8.292;2023-11-21T02:46:25;2.22;;;0.80;;
45420;SDS011;55462;47.042;8.292;2023-11-21T02:48:50;4.43;;;1.13;;
45420;SDS011;55462;47.042;8.292;2023-11-21T02:51:16;4.38;;;1.08;;
45420;SDS011;55462;47.042;8.292;2023-11-21T02:53:41;1.98;;;0.80;;
45420;SDS011;55462;47.042;8.292;2023-11-21T02:56:06;1.02;;;0.90;;
45420;SDS011;55462;47.042;8.292;2023-11-21T02:58:32;1.23;;;0.85;;
45420;SDS011;55462;47.042;8.292;2023-11-21T03:00:57;2.70;;;1.00;;
45420;SDS011;55462;47.042;8.292;2023-11-21T03:03:23;2.65;;;1.02;;
45420;SDS011;55462;47.042;8.292;2023-11-21T03:05:49;1.98;;;1.02;;
45420;SDS011;55462;47.042;8.292;2023-11-21T03:08:15;5.18;;;1.27;;
45420;SDS011;55462;47.042;8.292;2023-11-21T03:10:40;2.60;;;0.85;;
45420;SDS011;55462;47.042;8.292;2023-11-21T03:13:05;2.97;;;1.13;;
45420;SDS011;55462;47.042;8.292;2023-11-21T03:15:30;2.53;;;1.10;;
45420;SDS011;55462;47.042;8.292;2023-11-21T03:17:57;2.53;;;0.90;;
45420;SDS011;55462;47.042;8.292;2023-11-21T03:20:23;2.70;;;1.33;;
45420;SDS011;55462;47.042;8.292;2023-11-21T03:22:48;1.75;;;1.08;;
45420;SDS011;55462;47.042;8.292;2023-11-21T03:25:13;1.10;;;1.02;;
45420;SDS011;55462;47.042;8.292;2023-11-21T03:27:40;1.38;;;1.02;;
45420;SDS011;55462;47.042;8.292;2023-11-21T03:30:07;6.85;;;1.35;;
45420;SDS011;55462;47.042;8.292;2023-11-21T03:32:35;1.35;;;1.05;;
45420;SDS011;55462;47.042;8.292;2023-11-21T03:35:01;1.10;;;0.70;;
45420;SDS011;55462;47.042;8.292;2023-11-21T03:37:27;3.45;;;1.55;;
45420;SDS011;55462;47.042;8.292;2023-11-21T03:39:52;2.85;;;1.10;;
45420;SDS011;55462;47.042;8.292;2023-11-21T03:42:17;1.40;;;1.05;;
45420;SDS011;55462;47.042;8.292;2023-11-21T03:44:43;1.58;;;0.85;;
45420;SDS011;55462;47.042;8.292;2023-11-21T03:47:08;1.33;;;0.90;;
45420;SDS011;55462;47.042;8.292;2023-11-21T03:49:33;3.05;;;0.98;;
45420;SDS011;55462;47.042;8.292;2023-11-21T03:51:59;2.20;;;1.10;;
45420;SDS011;55462;47.042;8.292;2023-11-21T03:54:24;3.45;;;1.23;;
45420;SDS011;55462;47.042;8.292;2023-11-21T03:56:49;3.38;;;1.38;;
45420;SDS011;55462;47.042;8.292;2023-11-21T03:59:15;3.35;;;1.33;;
45420;SDS011;55462;47.042;8.292;2023-11-21T04:01:40;3.08;;;1.08;;
45420;SDS011;55462;47.042;8.292;2023-11-21T04:04:05;1.60;;;1.50;;
45420;SDS011;55462;47.042;8.292;2023-11-21T04:06:31;3.28;;;1.70;;
45420;SDS011;55462;47.042;8.292;2023-11-21T04:08:58;2.30;;;1.75;;
45420;SDS011;55462;47.042;8.292;2023-11-21T04:11:23;1.80;;;1.52;;
45420;SDS011;55462;47.042;8.292;2023-11-21T04:13:48;1.50;;;1.30;;
45420;SDS011;55462;47.042;8.292;2023-11-21T04:16:14;4.32;;;1.63;;
45420;SDS011;55462;47.042;8.292;2023-11-21T04:18:39;3.42;;;1.70;;
45420;SDS011;55462;47.042;8.292;2023-11-21T04:21:05;3.97;;;1.73;;
45420;SDS011;55462;47.042;8.292;2023-11-21T04:23:31;1.27;;;1.20;;
45420;SDS011;55462;47.042;8.292;2023-11-21T04:26:00;4.28;;;2.25;;
45420;SDS011;55462;47.042;8.292;2023-11-21T04:28:26;6.55;;;2.00;;
45420;SDS011;55462;47.042;8.292;2023-11-21T04:30:52;2.47;;;1.45;;
45420;SDS011;55462;47.042;8.292;2023-11-21T04:33:17;2.97;;;1.55;;
45420;SDS011;55462;47.042;8.292;2023-11-21T04:35:43;4.25;;;1.40;;
45420;SDS011;55462;47.042;8.292;2023-11-21T04:38:11;4.03;;;1.30;;
45420;SDS011;55462;47.042;8.292;2023-11-21T04:40:36;3.72;;;3.40;;
45420;SDS011;55462;47.042;8.292;2023-11-21T04:43:02;4.20;;;1.00;;
45420;SDS011;55462;47.042;8.292;2023-11-21T04:45:29;3.72;;;1.13;;
45420;SDS011;55462;47.042;8.292;2023-11-21T04:47:54;2.17;;;1.00;;
45420;SDS011;55462;47.042;8.292;2023-11-21T04:50:19;1.65;;;1.13;;
45420;SDS011;55462;47.042;8.292;2023-11-21T04:52:45;1.25;;;0.70;;
45420;SDS011;55462;47.042;8.292;2023-11-21T04:55:10;1.02;;;0.70;;
45420;SDS011;55462;47.042;8.292;2023-11-21T04:57:36;1.75;;;1.20;;
45420;SDS011;55462;47.042;8.292;2023-11-21T05:00:02;1.35;;;1.25;;
45420;SDS011;55462;47.042;8.292;2023-11-21T05:02:30;1.20;;;1.10;;
45420;SDS011;55462;47.042;8.292;2023-11-21T05:04:56;3.80;;;1.50;;
45420;SDS011;55462;47.042;8.292;2023-11-21T05:07:21;1.23;;;1.13;;
45420;SDS011;55462;47.042;8.292;2023-11-21T05:09:47;1.08;;;0.90;;
45420;SDS011;55462;47.042;8.292;2023-11-21T05:12:12;3.45;;;1.10;;
45420;SDS011;55462;47.042;8.292;2023-11-21T05:14:39;1.58;;;1.25;;
45420;SDS011;55462;47.042;8.292;2023-11-21T05:17:04;1.50;;;0.90;;
45420;SDS011;55462;47.042;8.292;2023-11-21T05:19:30;3.63;;;1.10;;
45420;SDS011;55462;47.042;8.292;2023-11-21T05:21:55;1.35;;;0.95;;
45420;SDS011;55462;47.042;8.292;2023-11-21T05:24:20;5.45;;;4.82;;
45420;SDS011;55462;47.042;8.292;2023-11-21T05:26:46;6.22;;;5.63;;
45420;SDS011;55462;47.042;8.292;2023-11-21T05:29:11;9.40;;;6.38;;
45420;SDS011;55462;47.042;8.292;2023-11-21T05:31:36;7.25;;;4.50;;
45420;SDS011;55462;47.042;8.292;2023-11-21T05:34:03;2.53;;;1.42;;
45420;SDS011;55462;47.042;8.292;2023-11-21T05:36:30;2.80;;;1.90;;
45420;SDS011;55462;47.042;8.292;2023-11-21T05:38:55;1.50;;;1.33;;
45420;SDS011;55462;47.042;8.292;2023-11-21T05:41:20;1.48;;;1.38;;
45420;SDS011;55462;47.042;8.292;2023-11-21T05:43:46;1.77;;;1.48;;
45420;SDS011;55462;47.042;8.292;2023-11-21T05:46:11;1.25;;;1.02;;
45420;SDS011;55462;47.042;8.292;2023-11-21T05:48:38;1.38;;;1.20;;
45420;SDS011;55462;47.042;8.292;2023-11-21T05:51:04;1.25;;;1.15;;
45420;SDS011;55462;47.042;8.292;2023-11-21T05:53:31;1.30;;;1.10;;
45420;SDS011;55462;47.042;8.292;2023-11-21T05:55:56;1.38;;;1.13;;
45420;SDS011;55462;47.042;8.292;2023-11-21T05:58:22;0.80;;;0.80;;
45420;SDS011;55462;47.042;8.292;2023-11-21T06:00:47;1.77;;;0.70;;
45420;SDS011;55462;47.042;8.292;2023-11-21T06:03:13;1.73;;;0.98;;
45420;SDS011;55462;47.042;8.292;2023-11-21T06:05:38;1.55;;;1.00;;
45420;SDS011;55462;47.042;8.292;2023-11-21T06:08:03;1.13;;;0.90;;
45420;SDS011;55462;47.042;8.292;2023-11-21T06:10:29;2.97;;;1.00;;
45420;SDS011;55462;47.042;8.292;2023-11-21T06:12:54;1.30;;;1.10;;
45420;SDS011;55462;47.042;8.292;2023-11-21T06:15:19;0.73;;;0.73;;
45420;SDS011;55462;47.042;8.292;2023-11-21T06:17:47;1.20;;;1.10;;
45420;SDS011;55462;47.042;8.292;2023-11-21T06:20:16;1.27;;;1.15;;
45420;SDS011;55462;47.042;8.292;2023-11-21T06:22:43;1.02;;;0.93;;
45420;SDS011;55462;47.042;8.292;2023-11-21T06:25:10;1.02;;;1.02;;
45420;SDS011;55462;47.042;8.292;2023-11-21T06:27:38;2.00;;;1.25;;
45420;SDS011;55462;47.042;8.292;2023-11-21T06:30:05;2.17;;;1.17;;
45420;SDS011;55462;47.042;8.292;2023-11-21T06:32:31;2.15;;;1.90;;
45420;SDS011;55462;47.042;8.292;2023-11-21T06:34:57;2.35;;;1.65;;
45420;SDS011;55462;47.042;8.292;2023-11-21T06:37:25;1.90;;;1.35;;
45420;SDS011;55462;47.042;8.292;2023-11-21T06:39:51;1.30;;;1.20;;
45420;SDS011;55462;47.042;8.292;2023-11-21T06:42:17;1.85;;;1.20;;
45420;SDS011;55462;47.042;8.292;2023-11-21T06:44:44;4.60;;;1.50;;
45420;SDS011;55462;47.042;8.292;2023-11-21T06:47:09;4.43;;;1.65;;
45420;SDS011;55462;47.042;8.292;2023-11-21T06:49:35;2.50;;;1.60;;
45420;SDS011;55462;47.042;8.292;2023-11-21T06:52:01;1.08;;;1.08;;
45420;SDS011;55462;47.042;8.292;2023-11-21T06:54:28;2.28;;;1.27;;
45420;SDS011;55462;47.042;8.292;2023-11-21T06:56:53;2.47;;;1.30;;
45420;SDS011;55462;47.042;8.292;2023-11-21T06:59:18;2.83;;;1.40;;
45420;SDS011;55462;47.042;8.292;2023-11-21T07:01:44;2.58;;;1.38;;
45420;SDS011;55462;47.042;8.292;2023-11-21T07:04:09;2.88;;;1.45;;
45420;SDS011;55462;47.042;8.292;2023-11-21T07:06:35;3.17;;;1.45;;
45420;SDS011;55462;47.042;8.292;2023-11-21T07:09:00;1.67;;;1.35;;
45420;SDS011;55462;47.042;8.292;2023-11-21T07:11:26;3.88;;;1.85;;
45420;SDS011;55462;47.042;8.292;2023-11-21T07:13:52;1.60;;;1.02;;
45420;SDS011;55462;47.042;8.292;2023-11-21T07:16:18;2.65;;;1.20;;
45420;SDS011;55462;47.042;8.292;2023-11-21T07:18:43;1.40;;;1.30;;
45420;SDS011;55462;47.042;8.292;2023-11-21T07:21:09;2.05;;;1.67;;
45420;SDS011;55462;47.042;8.292;2023-11-21T07:23:36;2.40;;;1.60;;
45420;SDS011;55462;47.042;8.292;2023-11-21T07:26:02;4.47;;;1.88;;
45420;SDS011;55462;47.042;8.292;2023-11-21T07:28:28;5.20;;;2.08;;
45420;SDS011;55462;47.042;8.292;2023-11-21T07:30:53;3.15;;;2.35;;
45420;SDS011;55462;47.042;8.292;2023-11-21T07:33:19;15.65;;;3.50;;
45420;SDS011;55462;47.042;8.292;2023-11-21T07:35:44;11.57;;;3.58;;
45420;SDS011;55462;47.042;8.292;2023-11-21T07:38:10;5.30;;;2.55;;
45420;SDS011;55462;47.042;8.292;2023-11-21T07:40:35;11.38;;;3.28;;
45420;SDS011;55462;47.042;8.292;2023-11-21T07:43:00;6.38;;;2.80;;
45420;SDS011;55462;47.042;8.292;2023-11-21T07:45:26;5.78;;;3.17;;
45420;SDS011;55462;47.042;8.292;2023-11-21T07:47:54;5.32;;;3.45;;
45420;SDS011;55462;47.042;8.292;2023-11-21T07:50:20;7.53;;;3.60;;
45420;SDS011;55462;47.042;8.292;2023-11-21T07:52:47;4.97;;;3.17;;
45420;SDS011;55462;47.042;8.292;2023-11-21T07:55:13;3.97;;;3.40;;
45420;SDS011;55462;47.042;8.292;2023-11-21T07:57:38;10.07;;;3.60;;
45420;SDS011;55462;47.042;8.292;2023-11-21T08:00:04;5.28;;;3.42;;
45420;SDS011;55462;47.042;8.292;2023-11-21T08:02:34;6.05;;;2.97;;
45420;SDS011;55462;47.042;8.292;2023-11-21T08:04:59;6.10;;;3.40;;
45420;SDS011;55462;47.042;8.292;2023-11-21T08:07:25;4.07;;;3.30;;
45420;SDS011;55462;47.042;8.292;2023-11-21T08:09:51;5.63;;;3.20;;
45420;SDS011;55462;47.042;8.292;2023-11-21T08:12:17;4.43;;;3.20;;
45420;SDS011;55462;47.042;8.292;2023-11-21T08:14:43;7.50;;;3.60;;
45420;SDS011;55462;47.042;8.292;2023-11-21T08:17:09;11.52;;;9.15;;
45420;SDS011;55462;47.042;8.292;2023-11-21T08:19:35;6.40;;;5.72;;
45420;SDS011;55462;47.042;8.292;2023-11-21T08:22:01;5.43;;;3.33;;
45420;SDS011;55462;47.042;8.292;2023-11-21T08:24:26;4.95;;;2.95;;
45420;SDS011;55462;47.042;8.292;2023-11-21T08:26:52;3.55;;;3.10;;
45420;SDS011;55462;47.042;8.292;2023-11-21T08:29:19;3.88;;;2.40;;
45420;SDS011;55462;47.042;8.292;2023-11-21T08:31:44;2.58;;;1.80;;
45420;SDS011;55462;47.042;8.292;2023-11-21T08:34:11;4.53;;;2.00;;
45420;SDS011;55462;47.042;8.292;2023-11-21T08:36:41;3.40;;;1.63;;
45420;SDS011;55462;47.042;8.292;2023-11-21T08:39:07;3.78;;;2.15;;
45420;SDS011;55462;47.042;8.292;2023-11-21T08:41:32;4.15;;;2.13;;
45420;SDS011;55462;47.042;8.292;2023-11-21T08:43:57;2.80;;;1.95;;
45420;SDS011;55462;47.042;8.292;2023-11-21T08:46:23;2.85;;;1.67;;
45420;SDS011;55462;47.042;8.292;2023-11-21T08:48:50;2.88;;;2.03;;
45420;SDS011;55462;47.042;8.292;2023-11-21T08:51:17;3.15;;;1.83;;
45420;SDS011;55462;47.042;8.292;2023-11-21T08:53:43;3.60;;;1.92;;
45420;SDS011;55462;47.042;8.292;2023-11-21T08:56:12;2.20;;;1.77;;
45420;SDS011;55462;47.042;8.292;2023-11-21T08:58:38;2.38;;;1.92;;
45420;SDS011;55462;47.042;8.292;2023-11-21T09:01:04;3.75;;;1.77;;
45420;SDS011;55462;47.042;8.292;2023-11-21T09:03:31;3.83;;;2.10;;
45420;SDS011;55462;47.042;8.292;2023-11-21T09:05:58;5.68;;;2.20;;
45420;SDS011;55462;47.042;8.292;2023-11-21T09:08:24;3.22;;;2.10;;
45420;SDS011;55462;47.042;8.292;2023-11-21T09:10:50;2.10;;;1.70;;
45420;SDS011;55462;47.042;8.292;2023-11-21T09:13:15;4.63;;;2.50;;
45420;SDS011;55462;47.042;8.292;2023-11-21T09:15:41;4.10;;;2.05;;
45420;SDS011;55462;47.042;8.292;2023-11-21T09:18:08;2.15;;;1.90;;
45420;SDS011;55462;47.042;8.292;2023-11-21T09:20:35;3.38;;;1.85;;
45420;SDS011;55462;47.042;8.292;2023-11-21T09:23:00;2.30;;;1.50;;
45420;SDS011;55462;47.042;8.292;2023-11-21T09:25:25;2.15;;;1.60;;
45420;SDS011;55462;47.042;8.292;2023-11-21T09:27:51;2.47;;;1.83;;
45420;SDS011;55462;47.042;8.292;2023-11-21T09:30:16;1.88;;;1.20;;
45420;SDS011;55462;47.042;8.292;2023-11-21T09:32:42;2.85;;;1.45;;
45420;SDS011;55462;47.042;8.292;2023-11-21T09:35:10;2.65;;;1.42;;
45420;SDS011;55462;47.042;8.292;2023-11-21T09:37:36;2.10;;;1.33;;
45420;SDS011;55462;47.042;8.292;2023-11-21T09:40:03;1.70;;;1.60;;
45420;SDS011;55462;47.042;8.292;2023-11-21T09:42:30;1.58;;;1.48;;
45420;SDS011;55462;47.042;8.292;2023-11-21T09:47:48;2.42;;;1.70;;
45420;SDS011;55462;47.042;8.292;2023-11-21T09:50:14;2.10;;;1.60;;
45420;SDS011;55462;47.042;8.292;2023-11-21T09:55:31;1.67;;;1.45;;
45420;SDS011;55462;47.042;8.292;2023-11-21T09:58:01;2.65;;;1.80;;
45420;SDS011;55462;47.042;8.292;2023-11-21T10:00:27;3.83;;;1.88;;
45420;SDS011;55462;47.042;8.292;2023-11-21T10:02:54;1.45;;;1.35;;
45420;SDS011;55462;47.042;8.292;2023-11-21T10:05:21;1.60;;;1.48;;
45420;SDS011;55462;47.042;8.292;2023-11-21T10:07:47;3.67;;;1.63;;
45420;SDS011;55462;47.042;8.292;2023-11-21T10:10:14;1.77;;;1.10;;
45420;SDS011;55462;47.042;8.292;2023-11-21T10:12:43;1.75;;;1.65;;
45420;SDS011;55462;47.042;8.292;2023-11-21T10:15:12;3.70;;;1.50;;
45420;SDS011;55462;47.042;8.292;2023-11-21T10:17:41;2.28;;;1.70;;
45420;SDS011;55462;47.042;8.292;2023-11-21T10:20:10;1.60;;;1.50;;
45420;SDS011;55462;47.042;8.292;2023-11-21T10:22:41;1.75;;;1.60;;
45420;SDS011;55462;47.042;8.292;2023-11-21T10:25:08;1.60;;;1.50;;
45420;SDS011;55462;47.042;8.292;2023-11-21T10:27:34;3.75;;;1.88;;
45420;SDS011;55462;47.042;8.292;2023-11-21T10:30:00;2.38;;;1.70;;
45420;SDS011;55462;47.042;8.292;2023-11-21T10:32:28;1.40;;;1.30;;
45420;SDS011;55462;47.042;8.292;2023-11-21T10:34:56;1.70;;;1.40;;
45420;SDS011;55462;47.042;8.292;2023-11-21T10:37:22;2.15;;;1.35;;
45420;SDS011;55462;47.042;8.292;2023-11-21T10:39:48;3.25;;;1.42;;
45420;SDS011;55462;47.042;8.292;2023-11-21T10:42:13;1.98;;;1.52;;
45420;SDS011;55462;47.042;8.292;2023-11-21T10:44:41;2.97;;;1.25;;
45420;SDS011;55462;47.042;8.292;2023-11-21T10:47:09;1.73;;;1.35;;
45420;SDS011;55462;47.042;8.292;2023-11-21T10:49:36;2.22;;;1.40;;
45420;SDS011;55462;47.042;8.292;2023-11-21T10:52:02;4.70;;;1.73;;
45420;SDS011;55462;47.042;8.292;2023-11-21T10:54:28;2.65;;;1.60;;
45420;SDS011;55462;47.042;8.292;2023-11-21T10:56:57;1.90;;;1.20;;
45420;SDS011;55462;47.042;8.292;2023-11-21T10:59:25;1.73;;;1.30;;
45420;SDS011;55462;47.042;8.292;2023-11-21T11:01:54;4.20;;;1.45;;
45420;SDS011;55462;47.042;8.292;2023-11-21T11:04:22;5.70;;;1.40;;
45420;SDS011;55462;47.042;8.292;2023-11-21T11:06:52;1.50;;;1.40;;
45420;SDS011;55462;47.042;8.292;2023-11-21T11:09:20;2.20;;;1.20;;
45420;SDS011;55462;47.042;8.292;2023-11-21T11:11:46;2.38;;;1.50;;
45420;SDS011;55462;47.042;8.292;2023-11-21T11:14:11;5.25;;;1.63;;
45420;SDS011;55462;47.042;8.292;2023-11-21T11:16:38;2.42;;;1.73;;
45420;SDS011;55462;47.042;8.292;2023-11-21T11:19:08;2.20;;;1.50;;
45420;SDS011;55462;47.042;8.292;2023-11-21T11:22:03;3.38;;;1.60;;
45420;SDS011;55462;47.042;8.292;2023-11-21T11:27:21;4.25;;;1.30;;
45420;SDS011;55462;47.042;8.292;2023-11-21T11:35:41;3.92;;;1.90;;
45420;SDS011;55462;47.042;8.292;2023-11-21T11:38:12;2.00;;;1.80;;
45420;SDS011;55462;47.042;8.292;2023-11-21T11:40:41;4.07;;;1.92;;
45420;SDS011;55462;47.042;8.292;2023-11-21T11:43:07;4.35;;;2.55;;
45420;SDS011;55462;47.042;8.292;2023-11-21T11:45:33;2.30;;;2.00;;
45420;SDS011;55462;47.042;8.292;2023-11-21T11:48:02;2.50;;;1.73;;
45420;SDS011;55462;47.042;8.292;2023-11-21T11:50:28;6.25;;;2.30;;
45420;SDS011;55462;47.042;8.292;2023-11-21T11:52:54;4.28;;;2.05;;
45420;SDS011;55462;47.042;8.292;2023-11-21T11:55:23;2.20;;;1.23;;
45420;SDS011;55462;47.042;8.292;2023-11-21T11:57:51;2.05;;;1.23;;
45420;SDS011;55462;47.042;8.292;2023-11-21T12:00:35;1.40;;;1.30;;
45420;SDS011;55462;47.042;8.292;2023-11-21T12:03:06;1.60;;;1.50;;
45420;SDS011;55462;47.042;8.292;2023-11-21T12:05:32;2.20;;;1.58;;
45420;SDS011;55462;47.042;8.292;2023-11-21T12:08:01;2.13;;;1.10;;
45420;SDS011;55462;47.042;8.292;2023-11-21T12:10:28;3.10;;;0.68;;
45420;SDS011;55462;47.042;8.292;2023-11-21T12:12:55;0.50;;;0.50;;
45420;SDS011;55462;47.042;8.292;2023-11-21T12:15:22;3.65;;;1.00;;
45420;SDS011;55462;47.042;8.292;2023-11-21T12:17:48;0.70;;;0.70;;
45420;SDS011;55462;47.042;8.292;2023-11-21T12:20:15;0.50;;;0.50;;
45420;SDS011;55462;47.042;8.292;2023-11-21T12:22:45;0.30;;;0.30;;
45420;SDS011;55462;47.042;8.292;2023-11-21T12:25:14;0.68;;;0.60;;
45420;SDS011;55462;47.042;8.292;2023-11-21T12:27:41;0.70;;;0.70;;
45420;SDS011;55462;47.042;8.292;2023-11-21T12:30:08;1.00;;;0.60;;
45420;SDS011;55462;47.042;8.292;2023-11-21T12:32:38;1.20;;;0.88;;
45420;SDS011;55462;47.042;8.292;2023-11-21T12:35:05;1.08;;;0.63;;
45420;SDS011;55462;47.042;8.292;2023-11-21T12:37:31;0.82;;;0.77;;
45420;SDS011;55462;47.042;8.292;2023-11-21T12:39:57;0.70;;;0.70;;
45420;SDS011;55462;47.042;8.292;2023-11-21T12:42:23;0.77;;;0.77;;
45420;SDS011;55462;47.042;8.292;2023-11-21T12:44:48;0.73;;;0.73;;
45420;SDS011;55462;47.042;8.292;2023-11-21T12:47:16;2.10;;;0.95;;
45420;SDS011;55462;47.042;8.292;2023-11-21T12:49:43;1.55;;;0.95;;
45420;SDS011;55462;47.042;8.292;2023-11-21T12:52:09;0.60;;;0.60;;
45420;SDS011;55462;47.042;8.292;2023-11-21T12:54:34;1.05;;;0.60;;
45420;SDS011;55462;47.042;8.292;2023-11-21T12:57:00;1.55;;;0.90;;
45420;SDS011;55462;47.042;8.292;2023-11-21T12:59:26;0.40;;;0.40;;
45420;SDS011;55462;47.042;8.292;2023-11-21T13:01:53;0.50;;;0.50;;
45420;SDS011;55462;47.042;8.292;2023-11-21T13:04:28;0.43;;;0.43;;
45420;SDS011;55462;47.042;8.292;2023-11-21T13:06:55;0.65;;;0.52;;
45420;SDS011;55462;47.042;8.292;2023-11-21T13:09:31;0.40;;;0.40;;
45420;SDS011;55462;47.042;8.292;2023-11-21T13:12:00;0.50;;;0.50;;
45420;SDS011;55462;47.042;8.292;2023-11-21T13:14:29;1.95;;;0.60;;
45420;SDS011;55462;47.042;8.292;2023-11-21T13:16:56;0.80;;;0.68;;
45420;SDS011;55462;47.042;8.292;2023-11-21T13:19:22;1.05;;;0.80;;
45420;SDS011;55462;47.042;8.292;2023-11-21T13:21:49;0.43;;;0.43;;
45420;SDS011;55462;47.042;8.292;2023-11-21T13:24:14;0.40;;;0.40;;
45420;SDS011;55462;47.042;8.292;2023-11-21T13:26:40;0.40;;;0.40;;
45420;SDS011;55462;47.042;8.292;2023-11-21T13:29:05;0.60;;;0.60;;
45420;SDS011;55462;47.042;8.292;2023-11-21T13:31:31;0.45;;;0.45;;
45420;SDS011;55462;47.042;8.292;2023-11-21T13:33:57;0.50;;;0.50;;
45420;SDS011;55462;47.042;8.292;2023-11-21T13:36:29;0.60;;;0.60;;
45420;SDS011;55462;47.042;8.292;2023-11-21T13:38:58;0.65;;;0.65;;
45420;SDS011;55462;47.042;8.292;2023-11-21T13:41:24;0.70;;;0.70;;
45420;SDS011;55462;47.042;8.292;2023-11-21T13:43:55;0.82;;;0.82;;
45420;SDS011;55462;47.042;8.292;2023-11-21T13:46:28;0.95;;;0.95;;
45420;SDS011;55462;47.042;8.292;2023-11-21T13:48:59;1.08;;;1.08;;
45420;SDS011;55462;47.042;8.292;2023-11-21T13:51:31;1.05;;;0.85;;
45420;SDS011;55462;47.042;8.292;2023-11-21T13:54:04;0.93;;;0.90;;
45420;SDS011;55462;47.042;8.292;2023-11-21T13:56:34;1.08;;;0.98;;
45420;SDS011;55462;47.042;8.292;2023-11-21T13:58:59;0.85;;;0.80;;
45420;SDS011;55462;47.042;8.292;2023-11-21T14:01:34;0.60;;;0.60;;
45420;SDS011;55462;47.042;8.292;2023-11-21T14:04:19;0.98;;;0.98;;
45420;SDS011;55462;47.042;8.292;2023-11-21T14:06:50;0.88;;;0.88;;
45420;SDS011;55462;47.042;8.292;2023-11-21T14:09:20;1.35;;;0.98;;
45420;SDS011;55462;47.042;8.292;2023-11-21T14:11:58;0.90;;;0.90;;
45420;SDS011;55462;47.042;8.292;2023-11-21T14:14:24;1.38;;;1.05;;
45420;SDS011;55462;47.042;8.292;2023-11-21T14:16:52;1.90;;;1.40;;
45420;SDS011;55462;47.042;8.292;2023-11-21T14:19:18;1.30;;;1.27;;
45420;SDS011;55462;47.042;8.292;2023-11-21T14:21:44;1.35;;;1.27;;
45420;SDS011;55462;47.042;8.292;2023-11-21T14:24:10;1.35;;;1.25;;
45420;SDS011;55462;47.042;8.292;2023-11-21T14:26:38;2.65;;;1.40;;
45420;SDS011;55462;47.042;8.292;2023-11-21T14:29:06;3.10;;;1.35;;
45420;SDS011;55462;47.042;8.292;2023-11-21T14:31:33;1.50;;;1.30;;
45420;SDS011;55462;47.042;8.292;2023-11-21T14:33:59;2.28;;;1.35;;
45420;SDS011;55462;47.042;8.292;2023-11-21T14:36:27;1.50;;;1.40;;
45420;SDS011;55462;47.042;8.292;2023-11-21T14:38:53;3.15;;;1.30;;
45420;SDS011;55462;47.042;8.292;2023-11-21T14:41:18;1.92;;;1.10;;
45420;SDS011;55462;47.042;8.292;2023-11-21T14:43:47;1.23;;;1.10;;
45420;SDS011;55462;47.042;8.292;2023-11-21T14:46:14;1.52;;;1.20;;
45420;SDS011;55462;47.042;8.292;2023-11-21T14:48:42;1.15;;;1.15;;
45420;SDS011;55462;47.042;8.292;2023-11-21T14:51:10;1.00;;;1.00;;
45420;SDS011;55462;47.042;8.292;2023-11-21T14:53:55;0.90;;;0.90;;
45420;SDS011;55462;47.042;8.292;2023-11-21T14:56:25;2.22;;;0.80;;
45420;SDS011;55462;47.042;8.292;2023-11-21T14:58:54;1.00;;;1.00;;